Time;durP1;ratioP1;P1;durP2;ratioP2;P2;SDS_P1;SDS_P2;PMS_P1;PMS_P2;Temp;Humidity;BMP_temperature;BMP_pressure;BME280_temperature;BME280_humidity;BME280_pressure;Samples;Min_cycle;Max_cycle;Signal;HPM_P1;HPM_P2
2023/04/28 00:00:55;;;;;;;1.50;1.40;;;;;;;19.38;50.20;97018.25;10554158;28;20105;-54
2023/04/28 00:06:14;;;;;;;1.63;1.48;;;;;;;19.36;50.21;97015.84;10553964;28;20048;-55
2023/04/28 00:11:33;;;;;;;3.17;1.67;;;;;;;19.35;50.16;97008.88;10553837;28;20040;-54
2023/04/28 00:16:55;;;;;;;2.55;1.70;;;;;;;19.35;50.23;97011.56;10553575;28;20431;-55
2023/04/28 00:22:15;;;;;;;1.75;1.65;;;;;;;19.33;50.26;97005.69;10538058;28;20044;-54
2023/04/28 00:27:34;;;;;;;1.70;1.60;;;;;;;19.33;50.12;97006.50;10553311;28;20052;-54
2023/04/28 00:32:54;;;;;;;2.42;1.58;;;;;;;19.31;50.13;97003.31;10551409;28;20052;-54
2023/04/28 00:38:14;;;;;;;2.00;1.55;;;;;;;19.31;50.08;96999.81;10552937;28;20052;-54
2023/04/28 00:43:49;;;;;;;2.08;1.58;;;;;;;19.30;50.19;96990.91;10537669;28;20044;-54
2023/04/28 00:49:08;;;;;;;1.77;1.58;;;;;;;19.29;49.98;96983.13;10552796;28;20044;-54
2023/04/28 00:54:29;;;;;;;1.67;1.55;;;;;;;19.29;50.05;96983.13;10552620;28;20051;-55
2023/04/28 00:59:49;;;;;;;2.22;1.55;;;;;;;19.28;50.10;96984.25;10552672;28;20051;-54
2023/04/28 01:05:10;;;;;;;2.70;1.60;;;;;;;19.26;49.97;96981.84;10552647;28;20040;-47
2023/04/28 01:10:30;;;;;;;1.70;1.60;;;;;;;19.26;50.03;96978.34;10537090;28;20047;-49
2023/04/28 01:15:57;;;;;;;1.65;1.42;;;;;;;19.24;49.98;96964.38;10536981;28;20090;-47
2023/04/28 01:21:31;;;;;;;1.98;1.55;;;;;;;19.24;50.14;96970.56;10536903;28;20055;-49
2023/04/28 01:26:51;;;;;;;1.88;1.67;;;;;;;19.23;49.89;96960.91;10536726;28;20052;-49
2023/04/28 01:32:11;;;;;;;1.83;1.48;;;;;;;19.21;49.85;96962.31;10551964;28;20044;-47
2023/04/28 01:37:32;;;;;;;1.85;1.60;;;;;;;19.21;49.76;96955.00;10544420;28;20051;-50
2023/04/28 01:42:53;;;;;;;1.75;1.50;;;;;;;19.19;49.72;96956.44;10544409;28;20044;-48
2023/04/28 01:48:12;;;;;;;1.40;1.30;;;;;;;19.18;49.84;96955.63;10544169;28;20051;-49
2023/04/28 01:53:32;;;;;;;1.30;1.20;;;;;;;19.18;49.92;96952.94;10530170;28;20044;-47
2023/04/28 01:58:51;;;;;;;1.88;1.30;;;;;;;19.17;49.80;96954.06;10543633;28;20048;-49
2023/04/28 02:04:11;;;;;;;1.63;1.52;;;;;;;19.15;49.93;96957.06;10558920;28;20036;-48
2023/04/28 02:09:31;;;;;;;1.80;1.50;;;;;;;19.15;49.94;96951.69;10543409;28;20476;-47
2023/04/28 02:14:51;;;;;;;2.53;1.50;;;;;;;19.15;49.98;96946.28;10558560;28;20040;-48
2023/04/28 02:20:10;;;;;;;1.80;1.60;;;;;;;19.14;49.86;96946.59;10558275;28;20488;-49
2023/04/28 02:25:30;;;;;;;1.45;1.35;;;;;;;19.13;49.92;96943.09;10542858;28;20047;-49
2023/04/28 02:30:49;;;;;;;1.50;1.35;;;;;;;19.12;49.83;96941.50;10557891;28;20044;-48
2023/04/28 02:36:10;;;;;;;1.80;1.58;;;;;;;19.11;49.81;96939.09;10547048;28;20040;-49
2023/04/28 02:41:30;;;;;;;1.75;1.50;;;;;;;19.10;49.87;96945.63;10557366;28;20040;-48
2023/04/28 02:46:50;;;;;;;1.40;1.30;;;;;;;19.10;49.85;96954.53;10556698;28;20048;-47
2023/04/28 02:52:10;;;;;;;1.60;1.50;;;;;;;19.09;49.61;96963.75;10556934;28;20044;-49
2023/04/28 02:57:29;;;;;;;1.50;1.40;;;;;;;19.08;49.82;96967.53;10543159;28;20059;-47
2023/04/28 03:02:49;;;;;;;1.63;1.52;;;;;;;19.07;49.78;96960.56;10541182;28;20040;-46
2023/04/28 03:08:08;;;;;;;1.77;1.60;;;;;;;19.07;49.67;96957.06;10527592;28;20056;-49
2023/04/28 03:13:28;;;;;;;1.50;1.40;;;;;;;19.05;49.59;96943.06;10527451;28;20117;-49
2023/04/28 03:18:48;;;;;;;1.40;1.30;;;;;;;19.03;49.64;96926.41;10540358;28;20043;-48
2023/04/28 03:24:08;;;;;;;1.70;1.60;;;;;;;19.03;49.75;96921.00;10555700;28;20457;-47
2023/04/28 03:29:28;;;;;;;1.40;1.30;;;;;;;19.02;49.74;96920.22;10540152;28;20040;-48
2023/04/28 03:34:48;;;;;;;1.70;1.60;;;;;;;19.01;49.80;96912.44;10548566;28;20052;-48
2023/04/28 03:40:08;;;;;;;1.75;1.50;;;;;;;19.00;49.76;96910.84;10555042;28;20043;-47
2023/04/28 03:45:46;;;;;;;1.60;1.50;;;;;;;19.00;49.76;96908.94;10554816;28;20101;-46
2023/04/28 03:51:07;;;;;;;1.42;1.30;;;;;;;18.99;49.79;96907.34;10539260;28;20036;-46
2023/04/28 03:56:26;;;;;;;1.85;1.73;;;;;;;18.96;49.92;96911.47;10538184;28;20044;-49
2023/04/28 04:01:47;;;;;;;2.42;1.40;;;;;;;18.97;49.72;96909.56;10538870;28;20042;-47
2023/04/28 04:07:06;;;;;;;1.60;1.50;;;;;;;18.96;49.49;96908.00;10540587;28;20051;-49
2023/04/28 04:12:27;;;;;;;1.73;1.50;;;;;;;18.94;49.40;96905.59;10525015;28;20079;-49
2023/04/28 04:17:47;;;;;;;3.90;1.63;;;;;;;18.94;49.75;96913.69;10553415;28;20480;-47
2023/04/28 04:23:07;;;;;;;1.40;1.30;;;;;;;18.96;50.39;96900.69;10538194;28;20044;-46
2023/04/28 04:28:27;;;;;;;3.55;1.40;;;;;;;18.96;50.58;96900.69;10538024;28;20048;-47
2023/04/28 04:33:48;;;;;;;1.50;1.30;;;;;;;18.96;50.77;96897.97;10534082;28;20106;-47
2023/04/28 04:39:08;;;;;;;2.17;1.30;;;;;;;18.99;50.65;96910.03;10537611;28;20040;-49
2023/04/28 04:44:28;;;;;;;2.90;1.40;;;;;;;18.99;50.63;96901.94;10539322;28;20052;-48
2023/04/28 04:49:50;;;;;;;3.47;1.23;;;;;;;19.01;50.59;96904.31;10537460;28;20399;-47
2023/04/28 04:55:12;;;;;;;1.33;1.23;;;;;;;19.03;50.53;96899.41;10552516;28;20040;-48
2023/04/28 05:00:36;;;;;;;2.17;1.45;;;;;;;19.04;50.54;96904.50;10537143;28;20049;-49
2023/04/28 05:05:56;;;;;;;1.90;1.60;;;;;;;19.07;50.55;96895.78;10523897;28;20056;-47
2023/04/28 05:11:36;;;;;;;1.30;1.20;;;;;;;19.08;50.62;96900.03;10560950;28;20043;-49
2023/04/28 05:16:56;;;;;;;1.48;1.00;;;;;;;19.11;50.63;96890.50;10531946;28;20074;-48
2023/04/28 05:22:18;;;;;;;2.35;1.40;;;;;;;19.14;50.58;96890.66;10545195;28;20044;-48
2023/04/28 05:27:39;;;;;;;2.25;1.25;;;;;;;19.17;50.67;96883.84;10560346;28;20043;-48
2023/04/28 05:32:59;;;;;;;2.45;1.73;;;;;;;19.19;50.45;96889.72;10548263;28;20055;-49
2023/04/28 05:38:19;;;;;;;2.92;1.60;;;;;;;19.22;49.78;96883.66;10502022;28;20040;-47
2023/04/28 05:43:41;;;;;;;7.75;3.10;;;;;;;19.20;46.12;96879.72;10502204;28;20416;-49
2023/04/28 05:49:01;;;;;;;2.25;1.90;;;;;;;19.22;48.75;96880.97;10501955;28;20488;-47
2023/04/28 05:54:25;;;;;;;3.25;2.30;;;;;;;19.26;48.07;96875.72;10501452;28;20051;-48
2023/04/28 05:59:48;;;;;;;2.20;1.65;;;;;;;19.29;47.88;96885.91;10493848;28;20047;-49
2023/04/28 06:05:08;;;;;;;2.67;2.08;;;;;;;19.32;47.51;96875.22;10485153;28;20472;-48
2023/04/28 06:10:28;;;;;;;2.72;2.17;;;;;;;19.36;47.34;96867.28;10498089;28;20037;-48
2023/04/28 06:15:47;;;;;;;3.60;2.22;;;;;;;19.37;46.06;96852.66;10507224;28;20052;-47
2023/04/28 06:21:07;;;;;;;4.13;2.90;;;;;;;19.39;42.13;96872.06;10515135;28;20047;-48
2023/04/28 06:26:26;;;;;;;3.70;2.30;;;;;;;19.36;44.02;96859.97;10515674;28;20052;-49
2023/04/28 06:31:45;;;;;;;3.50;3.20;;;;;;;19.41;41.53;96863.63;10515717;28;20051;-47
2023/04/28 06:37:06;;;;;;;4.68;2.40;;;;;;;19.43;43.87;96854.09;10502603;28;20056;-48
2023/04/28 06:42:25;;;;;;;24.45;3.08;;;;;;;19.47;43.14;96846.91;10527875;28;20040;-50
2023/04/28 06:47:54;;;;;;;4.97;2.80;;;;;;;19.51;43.39;96839.75;10524248;28;20044;-51
2023/04/28 06:53:14;;;;;;;4.88;2.60;;;;;;;19.56;43.27;96841.47;10510814;28;20044;-48
2023/04/28 06:58:33;;;;;;;4.53;3.10;;;;;;;19.61;43.08;96854.03;10512326;28;20538;-51
2023/04/28 07:03:53;;;;;;;5.20;2.63;;;;;;;19.63;43.18;96835.59;10527709;28;20413;-49
2023/04/28 07:09:13;;;;;;;5.53;4.18;;;;;;;19.53;37.35;96842.91;10514165;28;20060;-48
2023/04/28 07:14:32;;;;;;;9.77;4.15;;;;;;;19.36;35.80;96827.53;10513917;28;20047;-50
2023/04/28 07:19:51;;;;;;;8.70;4.20;;;;;;;19.25;34.64;96820.09;10513797;28;20041;-51
2023/04/28 07:25:11;;;;;;;9.65;3.10;;;;;;;19.32;39.03;96821.19;10513632;28;20044;-48
2023/04/28 07:30:30;;;;;;;9.25;2.85;;;;;;;19.43;39.10;96813.56;10500084;28;20121;-49
2023/04/28 07:35:51;;;;;;;6.47;2.60;;;;;;;19.55;39.46;96810.97;10503873;28;20045;-48
2023/04/28 07:41:11;;;;;;;12.20;3.03;;;;;;;19.62;39.95;96807.78;10513049;28;20553;-48
2023/04/28 07:46:31;;;;;;;14.40;2.95;;;;;;;19.67;40.29;96798.69;10512891;28;20554;-50
2023/04/28 07:51:52;;;;;;;12.90;3.55;;;;;;;19.72;40.78;96801.25;10512676;28;20044;-48
2023/04/28 07:57:11;;;;;;;11.35;3.35;;;;;;;19.77;40.98;96808.38;10512386;28;20041;-47
2023/04/28 08:02:33;;;;;;;11.48;3.25;;;;;;;19.81;41.28;96801.97;10498893;28;20082;-49
2023/04/28 08:07:52;;;;;;;12.10;3.13;;;;;;;19.84;41.44;96798.66;10512133;28;20386;-51
2023/04/28 08:13:12;;;;;;;13.90;3.33;;;;;;;19.88;41.67;96796.88;10498504;28;20048;-54
2023/04/28 08:18:31;;;;;;;11.10;2.90;;;;;;;19.90;41.89;96791.94;10511631;28;20041;-49
2023/04/28 08:23:51;;;;;;;10.73;2.80;;;;;;;19.92;42.20;96773.47;10511584;28;20040;-48
2023/04/28 08:29:11;;;;;;;12.65;2.80;;;;;;;19.95;42.59;96767.41;10511366;28;20044;-47
2023/04/28 08:34:30;;;;;;;8.57;2.25;;;;;;;19.98;42.98;96763.25;10505355;28;20060;-47
2023/04/28 08:39:49;;;;;;;8.02;2.63;;;;;;;20.02;43.34;96766.09;10511068;28;20542;-46
2023/04/28 08:45:12;;;;;;;12.70;2.97;;;;;;;20.01;43.71;96759.09;10510419;28;20055;-47
2023/04/28 08:50:33;;;;;;;11.50;2.63;;;;;;;20.02;43.78;96750.66;10510676;28;20041;-56
2023/04/28 08:55:56;;;;;;;8.13;2.60;;;;;;;20.05;43.95;96754.63;10497451;28;20060;-58
2023/04/28 09:01:16;;;;;;;9.02;2.40;;;;;;;20.08;44.11;96748.56;10510810;28;20392;-59
2023/04/28 09:06:37;;;;;;;8.25;2.40;;;;;;;20.09;44.16;96745.53;10507953;28;20041;-53
2023/04/28 09:12:01;;;;;;;6.60;2.47;;;;;;;20.11;44.35;96737.88;10507781;28;20040;-56
2023/04/28 09:17:20;;;;;;;4.88;2.00;;;;;;;20.12;44.56;96727.84;10505011;28;20033;-51
2023/04/28 09:22:40;;;;;;;5.72;2.25;;;;;;;20.15;44.55;96738.03;10510154;28;20045;-46
2023/04/28 09:28:18;;;;;;;7.00;2.05;;;;;;;20.19;44.46;96713.78;10510087;28;20044;-50
2023/04/28 09:33:55;;;;;;;5.47;2.30;;;;;;;20.21;44.78;96716.94;10496472;28;20065;-47
2023/04/28 09:39:27;;;;;;;8.05;2.60;;;;;;;20.20;45.06;96724.28;10509852;28;20040;-47
2023/04/28 09:44:53;;;;;;;7.18;2.30;;;;;;;20.22;45.17;96721.25;10509730;28;20052;-45
2023/04/28 09:50:13;;;;;;;5.85;1.95;;;;;;;20.21;45.25;96715.06;10509469;28;20037;-48
2023/04/28 09:55:35;;;;;;;7.85;2.53;;;;;;;20.21;45.47;96715.06;10512918;28;20048;-49
2023/04/28 10:00:56;;;;;;;6.03;2.25;;;;;;;20.23;45.55;96701.19;10517169;28;20094;-47
2023/04/28 10:06:16;;;;;;;5.45;2.22;;;;;;;20.23;45.60;96701.19;10516785;28;20056;-49
2023/04/28 10:11:38;;;;;;;4.07;1.85;;;;;;;20.24;45.71;96692.75;10516655;28;20044;-49
2023/04/28 10:16:58;;;;;;;4.90;1.95;;;;;;;20.25;45.75;96694.34;10516268;28;20044;-48
2023/04/28 10:22:52;;;;;;;5.68;2.40;;;;;;;20.25;45.78;96691.63;10516121;28;20443;-49
2023/04/28 10:28:12;;;;;;;4.07;1.80;;;;;;;20.27;46.11;96689.38;10516102;28;20489;-56
2023/04/28 10:33:32;;;;;;;7.43;4.57;;;;;;;20.28;47.17;96687.47;10498294;28;20082;-54
2023/04/28 10:39:08;;;;;;;13.93;4.85;;;;;;;20.27;48.38;96670.47;10487287;28;20072;-53
2023/04/28 10:44:28;;;;;;;12.63;4.80;;;;;;;20.28;48.93;96661.19;10515388;28;20056;-53
2023/04/28 10:49:54;;;;;;;10.25;4.80;;;;;;;20.28;48.99;96674.72;10515099;28;20102;-53
2023/04/28 10:55:38;;;;;;;18.92;9.07;;;;;;;20.29;50.97;96659.31;10515024;28;20044;-53
2023/04/28 11:01:21;;;;;;;18.33;6.57;;;;;;;20.29;50.37;96662.00;10514752;28;20484;-54
2023/04/28 11:06:41;;;;;;;28.17;12.85;;;;;;;20.31;51.04;96665.97;10495419;28;20056;-53
2023/04/28 11:12:06;;;;;;;44.15;19.73;;;;;;;20.31;52.71;96668.66;10514861;28;20037;-53
2023/04/28 11:17:39;;;;;;;9.13;4.40;;;;;;;20.30;43.94;96675.19;10514015;28;20045;-54
2023/04/28 11:22:58;;;;;;;32.83;13.30;;;;;;;20.26;45.79;96674.25;10500459;28;20052;-54
2023/04/28 11:28:18;;;;;;;37.03;13.90;;;;;;;20.24;49.37;96687.34;10498509;28;20454;-56
2023/04/28 11:33:40;;;;;;;45.00;19.35;;;;;;;20.25;49.71;96680.03;10510077;28;20071;-54
2023/04/28 11:39:03;;;;;;;39.72;17.17;;;;;;;20.28;51.18;96679.34;10513004;28;20040;-54
2023/04/28 11:44:26;;;;;;;37.40;14.23;;;;;;;20.29;50.85;96676.31;10499121;28;20477;-53
2023/04/28 11:49:46;;;;;;;35.88;12.38;;;;;;;20.29;50.31;96679.03;10512461;28;20036;-59
2023/04/28 11:55:06;;;;;;;28.00;10.95;;;;;;;20.27;50.51;96678.56;10498798;28;20052;-56
2023/04/28 12:00:26;;;;;;;26.65;10.45;;;;;;;20.29;50.36;96683.66;10511670;28;20067;-54
2023/04/28 12:05:46;;;;;;;32.22;10.63;;;;;;;20.30;50.14;96696.81;10511850;28;20082;-54
2023/04/28 12:11:16;;;;;;;22.23;8.27;;;;;;;20.28;49.97;96699.06;10511531;28;20516;-52
2023/04/28 12:16:42;;;;;;;23.48;9.20;;;;;;;20.28;50.00;96704.47;10511142;28;20045;-56
2023/04/28 12:22:04;;;;;;;19.33;9.07;;;;;;;20.29;50.20;96699.88;10498425;28;20053;-56
2023/04/28 12:27:24;;;;;;;22.40;8.32;;;;;;;20.29;50.35;96702.59;10496442;28;20109;-56
2023/04/28 12:32:44;;;;;;;19.45;7.75;;;;;;;20.30;50.54;96709.56;10510062;28;20477;-56
2023/04/28 12:38:03;;;;;;;20.48;7.88;;;;;;;20.29;50.83;96714.19;10510845;28;20040;-56
2023/04/28 12:43:25;;;;;;;19.20;7.47;;;;;;;20.29;50.94;96711.50;10497387;28;20453;-55
2023/04/28 12:48:45;;;;;;;20.30;7.05;;;;;;;20.28;51.27;96704.47;10510598;28;20543;-55
2023/04/28 12:54:05;;;;;;;16.95;7.15;;;;;;;20.28;51.20;96699.06;10510271;28;20044;-56
2023/04/28 12:59:25;;;;;;;18.02;7.60;;;;;;;20.26;51.60;96695.91;10510519;28;20047;-56
2023/04/28 13:04:45;;;;;;;13.05;7.15;;;;;;;20.26;51.85;96689.72;10511195;28;20107;-55
2023/04/28 13:10:05;;;;;;;15.38;6.55;;;;;;;20.27;51.79;96688.59;10510526;28;20036;-55
2023/04/28 13:15:26;;;;;;;14.95;6.70;;;;;;;20.26;51.77;96687.78;10502807;28;20438;-57
2023/04/28 13:20:45;;;;;;;14.50;6.00;;;;;;;20.27;51.70;96688.59;10510237;28;20044;-56
2023/04/28 13:26:05;;;;;;;15.48;5.90;;;;;;;20.25;51.62;96677.31;10496835;28;20094;-56
2023/04/28 13:31:25;;;;;;;12.73;5.60;;;;;;;20.25;51.59;96670.00;10516727;28;20037;-56
2023/04/28 13:36:46;;;;;;;10.63;5.57;;;;;;;20.23;51.67;96661.41;10505877;28;20523;-56
2023/04/28 13:42:06;;;;;;;12.27;5.43;;;;;;;20.22;51.59;96676.06;10517782;28;20143;-56
2023/04/28 13:47:26;;;;;;;10.25;4.82;;;;;;;20.24;51.70;96675.72;10517566;28;20059;-56
2023/04/28 13:52:46;;;;;;;11.73;5.07;;;;;;;20.21;51.76;96673.69;10517374;28;20049;-56
2023/04/28 13:58:05;;;;;;;10.68;5.25;;;;;;;20.21;51.86;96669.06;10517043;28;20049;-57
2023/04/28 14:03:26;;;;;;;20.55;8.43;;;;;;;20.21;52.60;96669.06;10516910;28;20086;-57
2023/04/28 14:08:45;;;;;;;49.80;17.58;;;;;;;20.22;54.37;96661.75;10516638;28;20539;-56
2023/04/28 14:14:05;;;;;;;37.13;13.93;;;;;;;20.20;54.13;96653.97;10516414;28;20044;-56
2023/04/28 14:19:25;;;;;;;48.53;14.63;;;;;;;20.20;56.12;96648.56;10516083;28;20067;-55
2023/04/28 14:24:45;;;;;;;57.10;21.77;;;;;;;20.22;57.45;96632.00;10516034;28;20041;-55
2023/04/28 14:30:05;;;;;;;71.00;24.58;;;;;;;20.22;57.36;96630.06;10515926;28;20044;-55
2023/04/28 14:35:26;;;;;;;81.38;24.85;;;;;;;20.24;58.42;96625.13;10507298;28;20385;-55
2023/04/28 14:40:45;;;;;;;57.38;19.02;;;;;;;20.27;58.18;96620.97;10514672;28;20040;-57
2023/04/28 14:46:04;;;;;;;47.70;17.35;;;;;;;20.26;57.80;96617.47;10515134;28;20097;-54
2023/04/28 14:51:24;;;;;;;51.53;17.25;;;;;;;20.25;57.07;96610.47;10515079;28;20098;-54
2023/04/28 14:56:44;;;;;;;44.58;16.75;;;;;;;20.25;56.89;96610.47;10514802;28;20044;-55
2023/04/28 15:02:04;;;;;;;43.90;15.00;;;;;;;20.25;56.83;96612.41;10514761;28;20041;-54
2023/04/28 15:07:29;;;;;;;43.75;15.18;;;;;;;20.25;56.39;96613.19;10509337;28;20040;-55
2023/04/28 15:12:49;;;;;;;41.78;14.57;;;;;;;20.23;56.48;96599.22;10530870;28;20043;-54
2023/04/28 15:18:09;;;;;;;39.40;13.98;;;;;;;20.24;56.57;96592.66;10524259;28;20502;-55
2023/04/28 15:23:29;;;;;;;39.67;14.05;;;;;;;20.22;56.50;96586.78;10504809;28;20071;-53
2023/04/28 15:28:49;;;;;;;33.95;13.38;;;;;;;20.23;56.47;96582.16;10513428;28;20443;-54
2023/04/28 15:34:08;;;;;;;29.38;11.43;;;;;;;20.22;56.28;96569.78;10499122;28;20526;-54
2023/04/28 15:39:28;;;;;;;33.55;12.23;;;;;;;20.20;55.92;96559.28;10486982;28;20052;-55
2023/04/28 15:44:48;;;;;;;29.55;11.57;;;;;;;20.21;55.80;96560.06;10512957;28;20044;-54
2023/04/28 15:50:09;;;;;;;27.02;10.05;;;;;;;20.19;55.72;96565.03;10510791;28;20040;-53
2023/04/28 15:55:29;;;;;;;25.85;8.90;;;;;;;20.18;55.56;96561.53;10509487;28;20036;-55
2023/04/28 16:00:50;;;;;;;22.83;8.30;;;;;;;20.16;55.24;96566.50;10509833;28;20048;-55
2023/04/28 16:06:10;;;;;;;26.15;9.55;;;;;;;20.15;54.80;96554.13;10509844;28;20381;-54
2023/04/28 16:11:29;;;;;;;22.25;9.23;;;;;;;20.14;54.43;96552.53;10509789;28;20499;-54
2023/04/28 16:16:49;;;;;;;20.52;7.57;;;;;;;20.13;54.26;96550.91;10509521;28;20045;-54
2023/04/28 16:22:08;;;;;;;21.77;8.73;;;;;;;20.12;53.99;96544.72;10509373;28;20090;-55
2023/04/28 16:27:28;;;;;;;20.85;8.50;;;;;;;20.12;54.03;96541.25;10509026;28;20045;-55
2023/04/28 16:32:48;;;;;;;20.42;8.65;;;;;;;20.11;53.94;96528.84;10508085;28;20048;-53
2023/04/28 16:38:10;;;;;;;17.90;7.65;;;;;;;20.09;53.97;96523.78;10508809;28;20120;-54
2023/04/28 16:43:31;;;;;;;18.08;8.25;;;;;;;20.10;54.06;96519.16;10508729;28;20040;-53
2023/04/28 16:48:51;;;;;;;18.60;7.50;;;;;;;20.09;54.16;96510.25;10508912;28;20040;-55
2023/04/28 16:54:10;;;;;;;18.88;8.27;;;;;;;20.09;54.30;96512.97;10508608;28;20086;-54
2023/04/28 16:59:32;;;;;;;17.83;7.70;;;;;;;20.09;54.24;96522.97;10508667;28;20098;-55
2023/04/28 17:04:51;;;;;;;16.40;6.97;;;;;;;20.09;54.29;96509.44;10512859;28;20068;-55
2023/04/28 17:10:11;;;;;;;14.70;7.18;;;;;;;20.08;54.17;96502.47;10517233;28;20048;-54
2023/04/28 17:15:31;;;;;;;17.17;6.88;;;;;;;20.06;54.15;96497.41;10516708;28;20055;-54
2023/04/28 17:20:50;;;;;;;16.45;7.35;;;;;;;20.07;54.08;96498.19;10516757;28;20071;-55
2023/04/28 17:26:10;;;;;;;14.65;6.05;;;;;;;20.05;53.88;96503.13;10516366;28;20044;-57
2023/04/28 17:31:29;;;;;;;12.88;6.57;;;;;;;20.03;53.93;96492.66;10516308;28;20059;-58
2023/04/28 17:36:49;;;;;;;13.20;6.03;;;;;;;20.03;54.32;96494.56;10503617;28;20072;-55
2023/04/28 17:42:08;;;;;;;12.27;6.50;;;;;;;20.03;54.24;96491.84;10515815;28;20048;-55
2023/04/28 17:47:28;;;;;;;11.93;6.35;;;;;;;20.03;54.28;96491.84;10502123;28;20124;-55
2023/04/28 17:52:47;;;;;;;11.25;5.57;;;;;;;20.01;55.74;96483.28;10515447;28;20476;-55
2023/04/28 17:58:07;;;;;;;10.93;5.72;;;;;;;20.02;56.35;96487.59;10515015;28;20049;-54
2023/04/28 18:03:26;;;;;;;13.25;6.10;;;;;;;20.03;56.54;96491.84;10501078;28;20090;-56
2023/04/28 18:08:46;;;;;;;13.70;6.15;;;;;;;20.02;56.67;96487.59;10514674;28;20459;-57
2023/04/28 18:14:06;;;;;;;12.95;6.10;;;;;;;20.02;56.20;96487.59;10513674;28;20044;-58
2023/04/28 18:19:27;;;;;;;13.18;5.88;;;;;;;20.01;56.39;96477.88;10514389;28;20094;-57
2023/04/28 18:24:49;;;;;;;14.60;6.68;;;;;;;19.99;56.40;96480.91;10514088;28;20546;-58
2023/04/28 18:30:10;;;;;;;14.05;5.97;;;;;;;19.99;56.77;96485.53;10500746;28;20053;-58
2023/04/28 18:35:30;;;;;;;13.70;5.47;;;;;;;19.99;57.26;96485.53;10505128;28;20052;-58
2023/04/28 18:40:49;;;;;;;10.82;4.68;;;;;;;19.98;57.43;96492.88;10513667;28;20097;-58
2023/04/28 18:46:09;;;;;;;15.35;5.75;;;;;;;19.99;57.07;96488.25;10513345;28;20048;-56
2023/04/28 18:51:29;;;;;;;11.07;5.43;;;;;;;19.98;57.12;96484.75;10513280;28;20044;-55
2023/04/28 18:56:51;;;;;;;11.15;5.22;;;;;;;19.97;57.15;96480.47;10512862;28;20044;-54
2023/04/28 19:02:11;;;;;;;9.20;5.00;;;;;;;19.97;56.91;96487.78;10499367;28;20056;-53
2023/04/28 19:07:31;;;;;;;10.10;5.43;;;;;;;19.96;56.98;96487.00;10512468;28;20123;-53
2023/04/28 19:12:51;;;;;;;10.25;5.20;;;;;;;19.95;56.72;96486.22;10512196;28;20040;-54
2023/04/28 19:18:11;;;;;;;10.52;4.65;;;;;;;19.93;57.11;96488.47;10511930;28;20044;-54
2023/04/28 19:23:31;;;;;;;10.45;4.82;;;;;;;19.93;57.22;96482.25;10511851;28;20072;-54
2023/04/28 19:28:52;;;;;;;9.63;5.38;;;;;;;19.92;57.36;96484.19;10511446;28;20040;-55
2023/04/28 19:34:11;;;;;;;10.35;5.25;;;;;;;19.93;57.43;96490.38;10506471;28;20434;-54
2023/04/28 19:39:32;;;;;;;8.45;4.80;;;;;;;19.92;57.37;96492.28;10497763;28;20126;-55
2023/04/28 19:44:54;;;;;;;8.57;4.80;;;;;;;19.93;57.59;96491.19;10510877;28;20048;-56
2023/04/28 19:50:14;;;;;;;7.00;4.50;;;;;;;19.93;57.29;96468.75;10510869;28;20049;-56
2023/04/28 19:55:35;;;;;;;9.07;4.60;;;;;;;19.91;57.19;96476.41;10510383;28;20040;-56
2023/04/28 20:00:54;;;;;;;8.93;4.50;;;;;;;19.90;57.06;96494.53;10510466;28;20412;-56
2023/04/28 20:06:16;;;;;;;7.55;4.28;;;;;;;19.89;56.98;96498.34;10510153;28;20044;-56
2023/04/28 20:11:36;;;;;;;7.32;4.20;;;;;;;19.88;56.94;96496.78;10510225;28;20045;-56
2023/04/28 20:16:56;;;;;;;11.68;4.05;;;;;;;19.87;56.82;96500.59;10509857;28;20037;-56
2023/04/28 20:22:15;;;;;;;8.30;4.15;;;;;;;19.85;56.83;96497.44;10509779;28;20044;-56
2023/04/28 20:27:35;;;;;;;6.80;3.88;;;;;;;19.85;56.82;96502.06;10509570;28;20040;-56
2023/04/28 20:32:55;;;;;;;8.93;4.22;;;;;;;19.84;56.80;96500.50;10480757;28;20087;-56
2023/04/28 20:38:15;;;;;;;5.85;3.80;;;;;;;19.84;56.87;96492.38;10508658;28;20044;-56
2023/04/28 20:43:34;;;;;;;6.90;3.95;;;;;;;19.82;56.76;96492.72;10509035;28;20037;-56
2023/04/28 20:48:54;;;;;;;6.57;3.80;;;;;;;19.83;56.75;96488.88;10509093;28;20045;-56
2023/04/28 20:54:14;;;;;;;7.05;3.90;;;;;;;19.82;56.79;96497.34;10508784;28;20037;-56
2023/04/28 20:59:34;;;;;;;7.13;3.80;;;;;;;19.80;56.70;96477.94;10493753;28;20045;-56
2023/04/28 21:04:53;;;;;;;6.85;3.70;;;;;;;19.78;56.78;96481.00;10495330;28;20056;-56
2023/04/28 21:10:13;;;;;;;5.40;3.50;;;;;;;19.78;56.66;96481.00;10508654;28;20408;-56
2023/04/28 21:15:38;;;;;;;8.23;3.72;;;;;;;19.77;56.71;96479.41;10508235;28;20044;-56
2023/04/28 21:20:57;;;;;;;7.70;3.55;;;;;;;19.76;56.52;96477.84;10508264;28;20041;-56
2023/04/28 21:26:19;;;;;;;5.18;3.67;;;;;;;19.75;56.62;96478.94;10508046;28;20114;-56
2023/04/28 21:31:38;;;;;;;6.60;3.58;;;;;;;19.74;56.43;96472.75;10508131;28;20048;-56
2023/04/28 21:37:00;;;;;;;4.57;3.22;;;;;;;19.73;56.51;96467.69;10480219;28;20109;-56
2023/04/28 21:42:19;;;;;;;7.30;3.28;;;;;;;19.72;56.44;96455.31;10507876;28;20455;-56
2023/04/28 21:47:39;;;;;;;5.32;3.30;;;;;;;19.72;56.48;96447.97;10507703;28;20492;-56
2023/04/28 21:52:58;;;;;;;5.50;3.15;;;;;;;19.71;56.43;96453.69;10514959;28;20032;-56
2023/04/28 21:58:17;;;;;;;4.40;3.05;;;;;;;19.70;56.29;96465.63;10515305;28;20404;-56
2023/04/28 22:03:37;;;;;;;5.97;3.38;;;;;;;19.69;56.40;96464.03;10515121;28;20718;-56
2023/04/28 22:08:57;;;;;;;5.82;3.65;;;;;;;19.68;56.35;96465.97;10515008;28;20048;-56
2023/04/28 22:14:16;;;;;;;5.55;3.20;;;;;;;19.68;56.40;96475.94;10514810;28;20070;-56
2023/04/28 22:19:35;;;;;;;4.65;3.22;;;;;;;19.66;56.40;96479.00;10514634;28;20051;-56
2023/04/28 22:24:55;;;;;;;6.13;3.50;;;;;;;19.65;56.35;96469.31;10514346;28;20044;-56
2023/04/28 22:30:15;;;;;;;5.88;3.17;;;;;;;19.65;56.31;96469.31;10514325;28;20102;-56
2023/04/28 22:35:34;;;;;;;4.43;3.13;;;;;;;19.65;56.21;96460.41;10505173;28;20052;-56
2023/04/28 22:40:54;;;;;;;5.03;3.13;;;;;;;19.64;56.22;96464.22;10513842;28;20048;-56
2023/04/28 22:46:13;;;;;;;5.40;3.13;;;;;;;19.63;56.20;96468.06;10513489;28;20039;-56
2023/04/28 22:51:34;;;;;;;5.35;3.30;;;;;;;19.62;56.06;96463.78;10513480;28;20090;-56
2023/04/28 22:56:53;;;;;;;5.00;3.17;;;;;;;19.61;56.14;96449.47;10513045;28;20051;-56
2023/04/28 23:02:13;;;;;;;4.35;3.00;;;;;;;19.61;56.03;96451.41;10512464;28;20044;-56
2023/04/28 23:07:32;;;;;;;4.00;3.17;;;;;;;19.59;56.13;96459.84;10512665;28;20041;-56
2023/04/28 23:12:52;;;;;;;4.47;2.85;;;;;;;19.59;55.99;96456.34;10499217;28;20104;-56
2023/04/28 23:18:11;;;;;;;4.30;2.60;;;;;;;19.59;55.99;96450.94;10498758;28;20048;-56
2023/04/28 23:23:32;;;;;;;4.32;2.65;;;;;;;19.58;55.99;96454.75;10512047;28;20477;-56
2023/04/28 23:28:51;;;;;;;3.78;2.78;;;;;;;19.57;55.93;96445.88;10496839;28;20045;-56
2023/04/28 23:34:11;;;;;;;3.72;2.85;;;;;;;19.55;55.75;96426.50;10506745;28;20052;-56
2023/04/28 23:39:30;;;;;;;3.72;2.88;;;;;;;19.54;55.89;96417.59;10497970;28;20052;-56
2023/04/28 23:44:51;;;;;;;4.57;3.33;;;;;;;19.54;55.92;96404.09;10511111;28;20033;-56
2023/04/28 23:50:11;;;;;;;2.85;2.53;;;;;;;19.54;55.80;96401.41;10510979;28;20044;-56
2023/04/28 23:55:30;;;;;;;3.40;2.78;;;;;;;19.52;55.76;96403.66;10510652;28;20374;-56
